sensor_id;sensor_type;location;lat;lon;timestamp;pressure;altitude;pressure_sealevel;temperature;humidity
77279;BME280;66332;50.436;15.378;2024-03-23T00:57:49;97260.13;;;8.65;100.00
77279;BME280;66332;50.436;15.378;2024-03-23T01:02:30;97251.59;;;8.35;100.00
77279;BME280;66332;50.436;15.378;2024-03-23T01:07:10;97238.00;;;8.46;100.00
77279;BME280;66332;50.436;15.378;2024-03-23T01:11:51;97224.28;;;8.44;100.00
77279;BME280;66332;50.436;15.378;2024-03-23T01:16:32;97236.50;;;8.37;100.00
77279;BME280;66332;50.436;15.378;2024-03-23T01:21:13;97227.78;;;8.30;100.00
77279;BME280;66332;50.436;15.378;2024-03-23T01:25:54;97222.09;;;8.26;100.00
77279;BME280;66332;50.436;15.378;2024-03-23T01:30:35;97214.19;;;8.20;100.00
77279;BME280;66332;50.436;15.378;2024-03-23T01:35:16;97211.97;;;8.38;100.00
77279;BME280;66332;50.436;15.378;2024-03-23T01:39:57;97209.75;;;8.42;100.00
77279;BME280;66332;50.436;15.378;2024-03-23T01:44:37;97200.88;;;8.43;100.00
77279;BME280;66332;50.436;15.378;2024-03-23T01:49:18;97187.44;;;8.24;100.00
77279;BME280;66332;50.436;15.378;2024-03-23T01:54:00;97177.13;;;8.16;100.00
77279;BME280;66332;50.436;15.378;2024-03-23T01:58:43;97182.78;;;8.20;100.00
77279;BME280;66332;50.436;15.378;2024-03-23T02:03:25;97171.97;;;8.30;100.00
77279;BME280;66332;50.436;15.378;2024-03-23T02:08:06;97163.06;;;8.24;100.00
77279;BME280;66332;50.436;15.378;2024-03-23T02:12:47;97152.25;;;8.34;100.00
77279;BME280;66332;50.436;15.378;2024-03-23T02:17:30;97143.28;;;8.21;100.00
77279;BME280;66332;50.436;15.378;2024-03-23T02:22:11;97145.28;;;8.41;100.00
77279;BME280;66332;50.436;15.378;2024-03-23T02:26:52;97131.75;;;8.37;100.00
77279;BME280;66332;50.436;15.378;2024-03-23T02:31:33;97129.59;;;8.19;100.00
77279;BME280;66332;50.436;15.378;2024-03-23T02:36:13;97129.19;;;8.44;100.00
77279;BME280;66332;50.436;15.378;2024-03-23T02:40:54;97129.19;;;8.44;100.00
77279;BME280;66332;50.436;15.378;2024-03-23T02:45:35;97123.00;;;8.30;100.00
77279;BME280;66332;50.436;15.378;2024-03-23T02:50:16;97113.22;;;8.11;100.00
77279;BME280;66332;50.436;15.378;2024-03-23T02:54:57;97112.00;;;8.07;100.00
77279;BME280;66332;50.436;15.378;2024-03-23T02:59:37;97111.00;;;8.08;100.00
77279;BME280;66332;50.436;15.378;2024-03-23T03:04:18;97103.44;;;7.91;100.00
77279;BME280;66332;50.436;15.378;2024-03-23T03:08:58;97092.19;;;7.69;100.00
77279;BME280;66332;50.436;15.378;2024-03-23T03:13:39;97083.75;;;7.46;100.00
77279;BME280;66332;50.436;15.378;2024-03-23T03:18:20;97073.19;;;7.39;100.00
77279;BME280;66332;50.436;15.378;2024-03-23T03:23:01;97072.97;;;7.34;100.00
77279;BME280;66332;50.436;15.378;2024-03-23T03:27:41;97056.28;;;7.13;100.00
77279;BME280;66332;50.436;15.378;2024-03-23T03:32:22;97050.94;;;7.00;100.00
77279;BME280;66332;50.436;15.378;2024-03-23T03:37:03;97044.72;;;7.01;100.00
77279;BME280;66332;50.436;15.378;2024-03-23T03:41:44;97055.22;;;7.08;100.00
77279;BME280;66332;50.436;15.378;2024-03-23T03:46:25;97046.47;;;6.94;100.00
77279;BME280;66332;50.436;15.378;2024-03-23T03:51:06;97051.84;;;6.93;100.00
77279;BME280;66332;50.436;15.378;2024-03-23T03:55:47;97049.63;;;7.11;100.00
77279;BME280;66332;50.436;15.378;2024-03-23T04:00:28;97051.84;;;6.93;100.00
77279;BME280;66332;50.436;15.378;2024-03-23T04:05:08;97044.78;;;7.08;100.00
77279;BME280;66332;50.436;15.378;2024-03-23T04:09:49;97036.81;;;6.95;100.00
77279;BME280;66332;50.436;15.378;2024-03-23T04:14:30;97030.16;;;6.56;100.00
77279;BME280;66332;50.436;15.378;2024-03-23T04:19:11;97022.50;;;6.54;100.00
77279;BME280;66332;50.436;15.378;2024-03-23T04:23:51;97013.97;;;6.46;100.00
77279;BME280;66332;50.436;15.378;2024-03-23T04:28:32;97013.34;;;6.43;100.00
77279;BME280;66332;50.436;15.378;2024-03-23T04:33:13;97006.59;;;6.49;100.00
77279;BME280;66332;50.436;15.378;2024-03-23T04:37:54;97003.25;;;6.40;100.00
77279;BME280;66332;50.436;15.378;2024-03-23T04:42:36;96990.22;;;6.40;100.00
77279;BME280;66332;50.436;15.378;2024-03-23T04:47:18;96984.91;;;6.34;100.00
77279;BME280;66332;50.436;15.378;2024-03-23T04:51:59;96980.34;;;6.21;100.00
77279;BME280;66332;50.436;15.378;2024-03-23T04:56:41;96980.63;;;6.11;100.00
77279;BME280;66332;50.436;15.378;2024-03-23T05:01:23;96978.28;;;6.02;100.00
77279;BME280;66332;50.436;15.378;2024-03-23T05:06:04;96978.94;;;6.04;100.00
77279;BME280;66332;50.436;15.378;2024-03-23T05:10:46;96968.72;;;6.24;100.00
77279;BME280;66332;50.436;15.378;2024-03-23T05:15:27;96959.31;;;6.44;100.00
77279;BME280;66332;50.436;15.378;2024-03-23T05:20:09;96955.69;;;6.45;100.00
77279;BME280;66332;50.436;15.378;2024-03-23T05:24:50;96952.78;;;6.33;100.00
77279;BME280;66332;50.436;15.378;2024-03-23T05:29:32;96937.72;;;6.35;100.00
77279;BME280;66332;50.436;15.378;2024-03-23T05:34:14;96932.13;;;6.38;100.00
77279;BME280;66332;50.436;15.378;2024-03-23T05:38:56;96935.88;;;6.51;100.00
77279;BME280;66332;50.436;15.378;2024-03-23T05:43:37;96930.81;;;6.64;100.00
77279;BME280;66332;50.436;15.378;2024-03-23T05:48:18;96935.50;;;6.97;100.00
77279;BME280;66332;50.436;15.378;2024-03-23T05:52:59;96928.41;;;6.90;100.00
77279;BME280;66332;50.436;15.378;2024-03-23T05:57:39;96921.84;;;7.23;100.00
77279;BME280;66332;50.436;15.378;2024-03-23T06:02:20;96920.53;;;7.33;100.00
77279;BME280;66332;50.436;15.378;2024-03-23T06:07:01;96910.66;;;7.35;100.00
77279;BME280;66332;50.436;15.378;2024-03-23T06:11:42;96900.94;;;7.23;100.00
77279;BME280;66332;50.436;15.378;2024-03-23T06:16:23;96903.03;;;7.34;100.00
77279;BME280;66332;50.436;15.378;2024-03-23T06:21:04;96886.94;;;7.37;100.00
77279;BME280;66332;50.436;15.378;2024-03-23T06:25:46;96884.09;;;7.32;100.00
77279;BME280;66332;50.436;15.378;2024-03-23T06:30:27;96868.91;;;7.49;100.00
77279;BME280;66332;50.436;15.378;2024-03-23T06:35:08;96863.06;;;7.47;100.00
77279;BME280;66332;50.436;15.378;2024-03-23T06:39:50;96861.06;;;7.49;100.00
77279;BME280;66332;50.436;15.378;2024-03-23T06:44:30;96858.00;;;7.45;100.00
77279;BME280;66332;50.436;15.378;2024-03-23T06:49:11;96848.63;;;7.57;100.00
77279;BME280;66332;50.436;15.378;2024-03-23T06:53:52;96847.44;;;7.67;100.00
77279;BME280;66332;50.436;15.378;2024-03-23T06:58:33;96846.56;;;7.94;100.00
77279;BME280;66332;50.436;15.378;2024-03-23T07:03:15;96835.13;;;8.15;100.00
77279;BME280;66332;50.436;15.378;2024-03-23T07:07:55;96831.44;;;10.07;100.00
77279;BME280;66332;50.436;15.378;2024-03-23T07:12:36;96811.63;;;8.42;100.00
77279;BME280;66332;50.436;15.378;2024-03-23T07:17:17;96801.38;;;8.40;100.00
77279;BME280;66332;50.436;15.378;2024-03-23T07:21:58;96789.88;;;8.41;100.00
77279;BME280;66332;50.436;15.378;2024-03-23T07:26:39;96784.22;;;8.58;100.00
77279;BME280;66332;50.436;15.378;2024-03-23T07:31:20;96802.97;;;8.75;100.00
77279;BME280;66332;50.436;15.378;2024-03-23T07:36:01;96818.47;;;8.69;100.00
77279;BME280;66332;50.436;15.378;2024-03-23T07:40:42;96797.69;;;8.88;100.00
77279;BME280;66332;50.436;15.378;2024-03-23T07:45:23;96796.31;;;8.72;100.00
77279;BME280;66332;50.436;15.378;2024-03-23T07:50:04;96790.28;;;8.71;100.00
77279;BME280;66332;50.436;15.378;2024-03-23T07:54:45;96769.28;;;8.85;100.00
77279;BME280;66332;50.436;15.378;2024-03-23T07:59:26;96760.50;;;9.76;100.00
77279;BME280;66332;50.436;15.378;2024-03-23T08:04:07;96730.47;;;9.97;100.00
77279;BME280;66332;50.436;15.378;2024-03-23T08:08:50;96718.44;;;9.82;100.00
77279;BME280;66332;50.436;15.378;2024-03-23T08:13:32;96701.66;;;10.47;100.00
77279;BME280;66332;50.436;15.378;2024-03-23T08:18:13;96681.78;;;11.24;100.00
77279;BME280;66332;50.436;15.378;2024-03-23T08:22:56;96672.75;;;11.81;99.10
77279;BME280;66332;50.436;15.378;2024-03-23T08:27:36;96666.88;;;11.79;96.65
77279;BME280;66332;50.436;15.378;2024-03-23T08:32:17;96654.69;;;12.78;94.16
77279;BME280;66332;50.436;15.378;2024-03-23T08:36:58;96642.22;;;12.62;94.24
77279;BME280;66332;50.436;15.378;2024-03-23T08:41:39;96651.13;;;12.84;87.90
77279;BME280;66332;50.436;15.378;2024-03-23T08:46:19;96651.88;;;13.66;85.87
77279;BME280;66332;50.436;15.378;2024-03-23T08:51:04;96651.75;;;14.40;81.68
77279;BME280;66332;50.436;15.378;2024-03-23T08:55:53;96640.94;;;14.58;81.86
77279;BME280;66332;50.436;15.378;2024-03-23T09:00:34;96641.19;;;14.40;79.96
77279;BME280;66332;50.436;15.378;2024-03-23T09:05:16;96619.03;;;14.85;77.84
77279;BME280;66332;50.436;15.378;2024-03-23T09:09:57;96614.72;;;14.79;76.95
77279;BME280;66332;50.436;15.378;2024-03-23T09:14:38;96611.47;;;14.72;80.07
77279;BME280;66332;50.436;15.378;2024-03-23T09:19:18;96611.31;;;15.54;75.31
77279;BME280;66332;50.436;15.378;2024-03-23T09:24:00;96605.16;;;15.49;75.00
77279;BME280;66332;50.436;15.378;2024-03-23T09:28:41;96601.31;;;16.26;73.06
77279;BME280;66332;50.436;15.378;2024-03-23T09:33:22;96600.09;;;16.01;72.65
77279;BME280;66332;50.436;15.378;2024-03-23T09:38:02;96587.56;;;15.92;73.06
77279;BME280;66332;50.436;15.378;2024-03-23T09:42:49;96585.19;;;15.36;76.02
77279;BME280;66332;50.436;15.378;2024-03-23T09:47:30;96598.22;;;15.43;75.97
77279;BME280;66332;50.436;15.378;2024-03-23T09:52:11;96582.25;;;15.32;75.30
77279;BME280;66332;50.436;15.378;2024-03-23T09:56:52;96562.03;;;15.80;74.46
77279;BME280;66332;50.436;15.378;2024-03-23T10:01:33;96550.47;;;15.97;72.46
77279;BME280;66332;50.436;15.378;2024-03-23T10:06:21;96550.13;;;15.83;74.53
77279;BME280;66332;50.436;15.378;2024-03-23T10:11:15;96546.00;;;15.65;67.92
77279;BME280;66332;50.436;15.378;2024-03-23T10:15:57;96541.94;;;15.25;70.44
77279;BME280;66332;50.436;15.378;2024-03-23T10:20:38;96546.47;;;15.03;71.05
77279;BME280;66332;50.436;15.378;2024-03-23T10:25:23;96564.16;;;14.36;75.05
77279;BME280;66332;50.436;15.378;2024-03-23T10:30:12;96579.31;;;13.68;73.13
77279;BME280;66332;50.436;15.378;2024-03-23T10:34:53;96580.38;;;13.39;75.94
77279;BME280;66332;50.436;15.378;2024-03-23T10:39:37;96585.56;;;13.05;78.14
77279;BME280;66332;50.436;15.378;2024-03-23T10:44:19;96568.13;;;13.04;78.59
77279;BME280;66332;50.436;15.378;2024-03-23T10:49:00;96592.97;;;12.91;80.85
77279;BME280;66332;50.436;15.378;2024-03-23T10:53:41;96616.88;;;12.73;83.34
77279;BME280;66332;50.436;15.378;2024-03-23T10:58:44;96618.94;;;12.71;85.06
77279;BME280;66332;50.436;15.378;2024-03-23T11:03:33;96619.13;;;12.81;86.73
77279;BME280;66332;50.436;15.378;2024-03-23T11:08:33;96606.00;;;12.69;87.48
77279;BME280;66332;50.436;15.378;2024-03-23T11:13:23;96624.91;;;12.54;86.88
77279;BME280;66332;50.436;15.378;2024-03-23T11:18:06;96622.75;;;12.39;87.91
77279;BME280;66332;50.436;15.378;2024-03-23T11:22:48;96623.31;;;12.42;89.58
77279;BME280;66332;50.436;15.378;2024-03-23T11:27:33;96619.91;;;12.18;85.21
77279;BME280;66332;50.436;15.378;2024-03-23T11:32:14;96633.75;;;12.25;85.88
77279;BME280;66332;50.436;15.378;2024-03-23T11:37:04;96627.81;;;12.18;83.33
77279;BME280;66332;50.436;15.378;2024-03-23T11:41:49;96651.59;;;12.11;84.40
77279;BME280;66332;50.436;15.378;2024-03-23T11:46:30;96634.59;;;11.83;84.36
77279;BME280;66332;50.436;15.378;2024-03-23T11:51:11;96607.84;;;11.86;84.01
77279;BME280;66332;50.436;15.378;2024-03-23T11:55:56;96621.34;;;12.02;83.71
77279;BME280;66332;50.436;15.378;2024-03-23T12:00:38;96611.88;;;12.12;83.75
77279;BME280;66332;50.436;15.378;2024-03-23T12:05:20;96629.50;;;12.35;82.76
77279;BME280;66332;50.436;15.378;2024-03-23T12:10:04;96631.44;;;12.52;81.73
77279;BME280;66332;50.436;15.378;2024-03-23T12:15:04;96639.94;;;12.42;83.25
77279;BME280;66332;50.436;15.378;2024-03-23T12:19:46;96647.84;;;12.07;89.66
77279;BME280;66332;50.436;15.378;2024-03-23T12:24:27;96650.69;;;11.03;99.17
77279;BME280;66332;50.436;15.378;2024-03-23T12:29:08;96646.97;;;10.74;100.00
77279;BME280;66332;50.436;15.378;2024-03-23T12:33:49;96657.34;;;10.87;100.00
77279;BME280;66332;50.436;15.378;2024-03-23T12:38:29;96680.56;;;10.72;97.88
77279;BME280;66332;50.436;15.378;2024-03-23T12:43:10;96715.22;;;10.12;95.37
77279;BME280;66332;50.436;15.378;2024-03-23T12:47:51;96712.66;;;9.74;94.96
77279;BME280;66332;50.436;15.378;2024-03-23T12:52:34;96729.66;;;9.64;97.41
77279;BME280;66332;50.436;15.378;2024-03-23T12:57:15;96733.75;;;9.02;92.59
77279;BME280;66332;50.436;15.378;2024-03-23T13:01:55;96744.34;;;8.62;87.28
77279;BME280;66332;50.436;15.378;2024-03-23T13:06:36;96754.97;;;8.81;86.96
77279;BME280;66332;50.436;15.378;2024-03-23T13:11:17;96760.63;;;8.84;85.94
77279;BME280;66332;50.436;15.378;2024-03-23T13:15:58;96745.53;;;8.80;83.78
77279;BME280;66332;50.436;15.378;2024-03-23T13:20:39;96785.22;;;8.90;82.84
77279;BME280;66332;50.436;15.378;2024-03-23T13:25:20;96823.16;;;8.67;81.00
77279;BME280;66332;50.436;15.378;2024-03-23T13:30:01;96856.19;;;8.55;81.51
77279;BME280;66332;50.436;15.378;2024-03-23T13:34:44;96858.69;;;8.15;83.22
77279;BME280;66332;50.436;15.378;2024-03-23T13:39:25;96889.13;;;8.16;85.42
77279;BME280;66332;50.436;15.378;2024-03-23T13:44:09;96900.81;;;7.72;85.10
77279;BME280;66332;50.436;15.378;2024-03-23T13:48:52;96896.75;;;7.70;85.81
77279;BME280;66332;50.436;15.378;2024-03-23T13:53:33;96907.16;;;7.56;85.29
77279;BME280;66332;50.436;15.378;2024-03-23T13:58:15;96955.06;;;7.57;84.40
77279;BME280;66332;50.436;15.378;2024-03-23T14:02:56;96952.13;;;7.39;82.65
77279;BME280;66332;50.436;15.378;2024-03-23T14:07:37;96956.25;;;7.26;82.91
77279;BME280;66332;50.436;15.378;2024-03-23T14:12:18;96953.75;;;7.18;83.50
77279;BME280;66332;50.436;15.378;2024-03-23T14:16:59;96961.13;;;7.08;84.43
77279;BME280;66332;50.436;15.378;2024-03-23T14:21:39;96997.34;;;7.11;84.08
77279;BME280;66332;50.436;15.378;2024-03-23T14:26:21;97008.09;;;7.44;84.46
77279;BME280;66332;50.436;15.378;2024-03-23T14:31:02;97004.38;;;7.32;85.01
77279;BME280;66332;50.436;15.378;2024-03-23T14:35:52;97005.41;;;6.88;84.80
77279;BME280;66332;50.436;15.378;2024-03-23T14:40:33;96996.50;;;6.82;84.64
77279;BME280;66332;50.436;15.378;2024-03-23T14:45:15;97011.59;;;6.51;82.55
77279;BME280;66332;50.436;15.378;2024-03-23T14:49:55;97029.97;;;6.57;82.53
77279;BME280;66332;50.436;15.378;2024-03-23T14:54:36;97020.00;;;6.82;82.38
77279;BME280;66332;50.436;15.378;2024-03-23T14:59:17;97040.09;;;6.82;81.66
77279;BME280;66332;50.436;15.378;2024-03-23T15:04:00;97034.59;;;6.77;82.27
77279;BME280;66332;50.436;15.378;2024-03-23T15:08:41;97030.50;;;6.68;82.46
77279;BME280;66332;50.436;15.378;2024-03-23T15:13:22;97042.56;;;6.54;80.84
77279;BME280;66332;50.436;15.378;2024-03-23T15:18:06;97040.16;;;6.52;82.39
77279;BME280;66332;50.436;15.378;2024-03-23T15:22:47;97047.06;;;6.60;81.92
77279;BME280;66332;50.436;15.378;2024-03-23T15:27:28;97038.78;;;6.56;82.50
77279;BME280;66332;50.436;15.378;2024-03-23T15:32:08;97050.75;;;6.65;82.33
77279;BME280;66332;50.436;15.378;2024-03-23T15:36:49;97038.03;;;6.77;81.84
77279;BME280;66332;50.436;15.378;2024-03-23T15:41:31;97015.72;;;6.60;82.32
77279;BME280;66332;50.436;15.378;2024-03-23T15:46:12;97035.50;;;6.69;82.94
77279;BME280;66332;50.436;15.378;2024-03-23T15:51:04;97035.25;;;6.79;82.62
77279;BME280;66332;50.436;15.378;2024-03-23T15:55:46;97022.59;;;6.61;82.23
77279;BME280;66332;50.436;15.378;2024-03-23T16:00:26;97044.81;;;6.57;81.82
77279;BME280;66332;50.436;15.378;2024-03-23T16:05:07;97053.50;;;6.42;82.15
77279;BME280;66332;50.436;15.378;2024-03-23T16:09:51;97048.81;;;6.38;82.53
77279;BME280;66332;50.436;15.378;2024-03-23T16:14:32;97049.38;;;6.33;80.91
77279;BME280;66332;50.436;15.378;2024-03-23T16:19:13;97080.63;;;6.12;80.18
77279;BME280;66332;50.436;15.378;2024-03-23T16:23:54;97053.31;;;6.14;80.08
77279;BME280;66332;50.436;15.378;2024-03-23T16:28:35;97064.75;;;6.13;80.60
77279;BME280;66332;50.436;15.378;2024-03-23T16:33:16;97053.59;;;6.05;81.45
77279;BME280;66332;50.436;15.378;2024-03-23T16:37:57;97045.41;;;6.08;80.68
77279;BME280;66332;50.436;15.378;2024-03-23T16:42:39;97036.75;;;5.92;80.87
77279;BME280;66332;50.436;15.378;2024-03-23T16:47:20;97017.78;;;5.98;81.24
77279;BME280;66332;50.436;15.378;2024-03-23T16:52:01;97025.16;;;5.95;80.46
77279;BME280;66332;50.436;15.378;2024-03-23T16:56:42;97071.97;;;5.96;80.69
77279;BME280;66332;50.436;15.378;2024-03-23T17:01:24;97104.72;;;5.76;80.91
77279;BME280;66332;50.436;15.378;2024-03-23T17:06:08;97100.06;;;5.86;80.41
77279;BME280;66332;50.436;15.378;2024-03-23T17:10:57;97054.25;;;5.84;80.02
77279;BME280;66332;50.436;15.378;2024-03-23T17:20:25;97077.56;;;5.70;79.71
77279;BME280;66332;50.436;15.378;2024-03-23T17:25:07;97076.09;;;5.68;80.39
77279;BME280;66332;50.436;15.378;2024-03-23T17:29:48;97077.56;;;5.70;79.77
77279;BME280;66332;50.436;15.378;2024-03-23T17:34:30;97095.25;;;5.60;80.69
77279;BME280;66332;50.436;15.378;2024-03-23T17:39:12;97103.44;;;5.72;80.35
77279;BME280;66332;50.436;15.378;2024-03-23T17:43:53;97130.31;;;5.58;80.31
77279;BME280;66332;50.436;15.378;2024-03-23T17:48:34;97145.00;;;5.50;80.42
77279;BME280;66332;50.436;15.378;2024-03-23T17:53:16;97145.41;;;5.62;80.47
77279;BME280;66332;50.436;15.378;2024-03-23T17:57:58;97156.09;;;5.52;81.08
77279;BME280;66332;50.436;15.378;2024-03-23T18:02:42;97166.50;;;5.52;81.71
77279;BME280;66332;50.436;15.378;2024-03-23T18:07:24;97163.78;;;5.46;82.66
77279;BME280;66332;50.436;15.378;2024-03-23T18:12:07;97155.44;;;5.50;82.86
77279;BME280;66332;50.436;15.378;2024-03-23T18:16:48;97134.47;;;5.44;83.43
77279;BME280;66332;50.436;15.378;2024-03-23T18:21:30;97147.03;;;5.40;83.65
77279;BME280;66332;50.436;15.378;2024-03-23T18:26:11;97149.19;;;5.37;83.14
77279;BME280;66332;50.436;15.378;2024-03-23T18:30:59;97144.25;;;5.19;87.23
77279;BME280;66332;50.436;15.378;2024-03-23T18:35:40;97154.69;;;5.11;88.82
77279;BME280;66332;50.436;15.378;2024-03-23T18:40:21;97155.59;;;4.95;89.66
77279;BME280;66332;50.436;15.378;2024-03-23T18:45:02;97146.28;;;5.09;90.07
77279;BME280;66332;50.436;15.378;2024-03-23T18:49:44;97146.94;;;5.02;91.90
77279;BME280;66332;50.436;15.378;2024-03-23T18:54:26;97144.81;;;4.75;92.00
77279;BME280;66332;50.436;15.378;2024-03-23T18:59:08;97131.84;;;4.50;93.58
77279;BME280;66332;50.436;15.378;2024-03-23T19:03:49;97128.91;;;4.53;94.57
77279;BME280;66332;50.436;15.378;2024-03-23T19:08:30;97123.34;;;4.65;93.92
77279;BME280;66332;50.436;15.378;2024-03-23T19:13:12;97121.41;;;4.58;93.99
77279;BME280;66332;50.436;15.378;2024-03-23T19:17:53;97123.06;;;4.59;94.91
77279;BME280;66332;50.436;15.378;2024-03-23T19:22:36;97115.28;;;4.51;97.03
77279;BME280;66332;50.436;15.378;2024-03-23T19:27:17;97118.22;;;4.48;97.47
77279;BME280;66332;50.436;15.378;2024-03-23T19:31:58;97113.75;;;4.18;99.12
77279;BME280;66332;50.436;15.378;2024-03-23T19:36:41;97101.81;;;4.40;97.88
77279;BME280;66332;50.436;15.378;2024-03-23T19:41:22;97110.97;;;4.67;96.75
77279;BME280;66332;50.436;15.378;2024-03-23T19:46:05;97102.88;;;4.53;97.02
77279;BME280;66332;50.436;15.378;2024-03-23T19:50:57;97109.63;;;4.31;96.73
77279;BME280;66332;50.436;15.378;2024-03-23T19:55:39;97099.16;;;3.92;99.92
77279;BME280;66332;50.436;15.378;2024-03-23T20:00:21;97102.03;;;4.13;100.00
77279;BME280;66332;50.436;15.378;2024-03-23T20:05:03;97117.53;;;3.90;100.00
77279;BME280;66332;50.436;15.378;2024-03-23T20:09:44;97106.84;;;3.69;100.00
77279;BME280;66332;50.436;15.378;2024-03-23T20:14:26;97109.44;;;3.44;100.00
77279;BME280;66332;50.436;15.378;2024-03-23T20:19:07;97105.38;;;3.34;100.00
77279;BME280;66332;50.436;15.378;2024-03-23T20:23:50;97102.75;;;3.26;100.00
77279;BME280;66332;50.436;15.378;2024-03-23T20:28:31;97108.28;;;3.31;100.00
77279;BME280;66332;50.436;15.378;2024-03-23T20:33:14;97113.50;;;3.55;100.00
77279;BME280;66332;50.436;15.378;2024-03-23T20:37:55;97113.84;;;3.60;100.00
77279;BME280;66332;50.436;15.378;2024-03-23T20:42:36;97119.84;;;3.61;100.00
77279;BME280;66332;50.436;15.378;2024-03-23T20:47:17;97111.06;;;3.62;100.00
77279;BME280;66332;50.436;15.378;2024-03-23T20:51:59;97101.13;;;3.16;100.00
77279;BME280;66332;50.436;15.378;2024-03-23T20:56:41;97098.53;;;3.16;100.00
77279;BME280;66332;50.436;15.378;2024-03-23T21:01:22;97106.50;;;3.39;100.00
77279;BME280;66332;50.436;15.378;2024-03-23T21:06:04;97100.31;;;3.16;100.00
77279;BME280;66332;50.436;15.378;2024-03-23T21:10:51;97097.56;;;3.17;100.00
77279;BME280;66332;50.436;15.378;2024-03-23T21:15:32;97094.44;;;2.81;100.00
77279;BME280;66332;50.436;15.378;2024-03-23T21:20:16;97093.28;;;2.75;100.00
77279;BME280;66332;50.436;15.378;2024-03-23T21:24:58;97089.88;;;2.75;100.00
77279;BME280;66332;50.436;15.378;2024-03-23T21:29:39;97084.28;;;2.53;100.00
77279;BME280;66332;50.436;15.378;2024-03-23T21:34:19;97077.97;;;2.56;100.00
77279;BME280;66332;50.436;15.378;2024-03-23T21:39:01;97067.53;;;2.40;100.00
77279;BME280;66332;50.436;15.378;2024-03-23T21:43:45;97067.06;;;2.52;100.00
77279;BME280;66332;50.436;15.378;2024-03-23T21:48:30;97060.63;;;2.57;100.00
77279;BME280;66332;50.436;15.378;2024-03-23T21:53:15;97059.41;;;2.35;100.00
77279;BME280;66332;50.436;15.378;2024-03-23T21:57:56;97055.31;;;2.24;100.00
77279;BME280;66332;50.436;15.378;2024-03-23T22:02:38;97061.44;;;2.15;100.00
77279;BME280;66332;50.436;15.378;2024-03-23T22:07:19;97069.75;;;2.26;100.00
77279;BME280;66332;50.436;15.378;2024-03-23T22:12:06;97071.16;;;2.55;100.00
77279;BME280;66332;50.436;15.378;2024-03-23T22:16:47;97056.41;;;2.64;100.00
77279;BME280;66332;50.436;15.378;2024-03-23T22:21:28;97061.44;;;2.57;100.00
77279;BME280;66332;50.436;15.378;2024-03-23T22:26:09;97065.94;;;2.55;100.00
77279;BME280;66332;50.436;15.378;2024-03-23T22:30:56;97062.63;;;2.71;100.00
77279;BME280;66332;50.436;15.378;2024-03-23T22:35:44;97073.78;;;2.63;100.00
77279;BME280;66332;50.436;15.378;2024-03-23T22:40:25;97061.34;;;2.83;100.00
77279;BME280;66332;50.436;15.378;2024-03-23T22:45:08;97060.38;;;2.84;100.00
77279;BME280;66332;50.436;15.378;2024-03-23T22:49:49;97061.34;;;2.91;100.00
77279;BME280;66332;50.436;15.378;2024-03-23T22:54:30;97065.09;;;2.97;100.00
77279;BME280;66332;50.436;15.378;2024-03-23T22:59:11;97062.19;;;3.25;100.00
77279;BME280;66332;50.436;15.378;2024-03-23T23:03:52;97055.38;;;3.24;100.00
77279;BME280;66332;50.436;15.378;2024-03-23T23:08:32;97054.69;;;3.13;100.00
77279;BME280;66332;50.436;15.378;2024-03-23T23:13:13;97043.19;;;3.40;100.00
77279;BME280;66332;50.436;15.378;2024-03-23T23:17:54;97052.75;;;3.40;100.00
77279;BME280;66332;50.436;15.378;2024-03-23T23:22:35;97052.13;;;3.21;100.00
77279;BME280;66332;50.436;15.378;2024-03-23T23:27:16;97046.59;;;3.25;100.00
77279;BME280;66332;50.436;15.378;2024-03-23T23:31:57;97060.72;;;3.06;100.00
77279;BME280;66332;50.436;15.378;2024-03-23T23:36:38;97045.47;;;3.03;100.00
77279;BME280;66332;50.436;15.378;2024-03-23T23:41:19;97041.56;;;3.07;100.00
77279;BME280;66332;50.436;15.378;2024-03-23T23:45:59;97041.09;;;3.11;100.00
77279;BME280;66332;50.436;15.378;2024-03-23T23:50:40;97032.97;;;3.06;100.00
77279;BME280;66332;50.436;15.378;2024-03-23T23:55:21;97024.19;;;3.07;100.00
